Christina O — C6FN7 — position and weather

sailwx.info

Track history (hours):
 
Tides and Currents Weather Stations Pressure Air Temp Water Temp Dewpoint Dewpoint Depression Visibility Wind Speed Wind Dir Waves Ship Positions

Christina O

Operator: V Ships Leisure SAM

Last reported at 2019-Jan-08 10:03 UTC. Time now 2019-Jan-23 17:53 UTC.
Position N 34°35' W 123°07'.
Warning: this ship's position is 15 days out of date.

Length 186 m; draft 6.1 m.

Type: Passenger vessel. MMSI: 308322000.

Date/timePositionNaut miles runAvg speedWind from/ knotsBaromVisibWave heightAir tempDewpointWater temp
2019-Jan-08 10:03N 34°35' W 123°07'618.6
2019-Jan-08 09:43N 34°41' W 123°06'418.4
2019-Jan-08 09:30N 34°45' W 123°05'12818.2
2019-Jan-08 02:27N 36°52' W 122°47'818.4
2019-Jan-08 02:00N 37°00' W 122°46'2118.3
2019-Jan-08 00:50N 37°21' W 122°44'618.4
2019-Jan-08 00:30N 37°27' W 122°44'918.2
2019-Jan-08 00:01N 37°36' W 122°43'917.3
2019-Jan-07 23:30N 37°45' W 122°40'714.2
2019-Jan-07 23:00N 37°48' W 122°32'5 9.5
2019-Jan-07 22:30N 37°49' W 122°26'3 5.9
2019-Jan-07 22:00N 37°48' W 122°30'815.4
2019-Jan-07 21:30N 37°45' W 122°39'611.7
2019-Jan-07 21:00N 37°39' W 122°40'815.4
2019-Jan-07 20:31N 37°32' W 122°40'918.8
2019-Jan-07 20:00N 37°22' W 122°40'611.1
2019-Jan-07 19:27N 37°17' W 122°44'817.1
2019-Jan-07 18:58N 37°25' W 122°44'817.0
2019-Jan-07 18:30N 37°33' W 122°43'816.8
2019-Jan-07 18:00N 37°41' W 122°42'510.8
2019-Jan-07 17:30N 37°46' W 122°39'815.3
2019-Jan-07 17:00N 37°49' W 122°30'612.6
2019-Jan-07 16:31N 37°47' W 122°22'3 5.3
2019-Jan-07 16:00N 37°45' W 122°20'0 0.1
2019-Jan-07 15:30N 37°45' W 122°20'0 0.0
2019-Jan-07 15:00N 37°45' W 122°20'0 0.0
2019-Jan-07 14:30N 37°45' W 122°20'0 0.0
2019-Jan-07 14:00N 37°45' W 122°20'0 0.0
2019-Jan-07 13:30N 37°45' W 122°20'0 0.0
2019-Jan-07 13:00N 37°45' W 122°20'0 0.0
2019-Jan-07 12:30N 37°45' W 122°20'0 0.0
2019-Jan-07 12:00N 37°45' W 122°20'0 0.0
2019-Jan-07 11:30N 37°45' W 122°20'0 0.0
2019-Jan-07 11:00N 37°45' W 122°20'0 0.1
2019-Jan-07 10:30N 37°45' W 122°20'0 0.1
2019-Jan-07 10:00N 37°45' W 122°20'0 0.1
2019-Jan-07 09:30N 37°45' W 122°20'0 0.0
2019-Jan-07 09:00N 37°45' W 122°20'0 0.1
2019-Jan-07 08:30N 37°45' W 122°20'0 0.0
2019-Jan-07 08:00N 37°45' W 122°20'0 0.0
2019-Jan-07 07:30N 37°45' W 122°20'0 0.0
2019-Jan-07 07:00N 37°45' W 122°20'0 0.0
2019-Jan-07 06:30N 37°45' W 122°20'0 0.0
2019-Jan-07 06:00N 37°45' W 122°20'0 0.0
2019-Jan-07 05:30N 37°45' W 122°20'0 0.1
2019-Jan-07 05:00N 37°45' W 122°20'0 0.1
2019-Jan-07 04:30N 37°45' W 122°20'0 0.0
2019-Jan-07 04:00N 37°45' W 122°20'0 0.2
2019-Jan-07 03:30N 37°45' W 122°20'2 3.8
2019-Jan-07 03:00N 37°46' W 122°21'3 5.9
2019-Jan-07 02:30N 37°49' W 122°24'0 0.5
2019-Jan-07 02:00N 37°48' W 122°24'0 0.0
2019-Jan-07 01:30N 37°48' W 122°24'0 0.0
2019-Jan-07 01:00N 37°48' W 122°24'0 0.0
2019-Jan-07 00:30N 37°48' W 122°24'0 0.0
2019-Jan-07 00:00N 37°48' W 122°24'0 0.0
2019-Jan-06 23:30N 37°48' W 122°24'0 0.0
2019-Jan-06 23:00N 37°48' W 122°24'0 0.0
2019-Jan-06 22:30N 37°48' W 122°24'0 0.0
2019-Jan-06 22:00N 37°48' W 122°24'0 0.0
2019-Jan-06 21:30N 37°48' W 122°24'0 0.1
2019-Jan-06 21:00N 37°48' W 122°24'0 0.0
2019-Jan-06 20:30N 37°48' W 122°24'0 0.0
2019-Jan-06 20:00N 37°48' W 122°24'0 0.1
2019-Jan-06 19:30N 37°48' W 122°24'0 0.1
2019-Jan-06 19:00N 37°48' W 122°24'0 0.0
2019-Jan-06 18:30N 37°48' W 122°24'0 0.1
2019-Jan-06 18:00N 37°48' W 122°24'0 0.0
2019-Jan-06 17:30N 37°48' W 122°24'0 0.0
2019-Jan-06 17:00N 37°48' W 122°24'0 0.0
2019-Jan-06 16:30N 37°48' W 122°24'0 0.0
2019-Jan-06 16:00N 37°48' W 122°24'0 0.0
2019-Jan-06 15:30N 37°48' W 122°24'0 0.1
2019-Jan-06 15:00N 37°48' W 122°24'1 2.3
2019-Jan-06 14:30N 37°49' W 122°25'613.0
2019-Jan-06 14:01N 37°47' W 122°33'713.6
2019-Jan-06 13:30N 37°44' W 122°41'5 9.8
2019-Jan-06 13:00N 37°39' W 122°40'5 9.8
2019-Jan-06 12:30N 37°34' W 122°40'510.0
2019-Jan-06 12:00N 37°29' W 122°40'5 9.7
2019-Jan-06 11:30N 37°24' W 122°40'510.0
2019-Jan-06 11:00N 37°19' W 122°40'510.8
2019-Jan-06 10:30N 37°14' W 122°37'611.3
2019-Jan-06 10:00N 37°09' W 122°34'12111.2
2019-Jan-05 23:15N 35°21' W 121°27'311.8
2019-Jan-05 23:00N 35°19' W 121°26'612.2
2019-Jan-05 22:30N 35°13' W 121°23'612.5
2019-Jan-05 22:00N 35°07' W 121°19'612.9
2019-Jan-05 21:30N 35°02' W 121°16'713.1
2019-Jan-05 21:01N 34°56' W 121°13'713.1
2019-Jan-05 20:30N 34°50' W 121°09'713.6
2019-Jan-05 20:00N 34°44' W 121°05'713.7
2019-Jan-05 19:31N 34°38' W 121°02'713.7
2019-Jan-05 19:00N 34°31' W 120°58'713.9
2019-Jan-05 18:30N 34°25' W 120°56'714.3
2019-Jan-05 18:00N 34°18' W 120°54'714.2
2019-Jan-05 17:31N 34°11' W 120°51'714.4
2019-Jan-05 17:00N 34°04' W 120°48'714.3
2019-Jan-05 16:31N 33°58' W 120°45'714.9
2019-Jan-05 16:00N 33°54' W 120°37'815.5
2019-Jan-05 15:31N 33°51' W 120°29'815.3
2019-Jan-05 15:00N 33°47' W 120°20'815.6
2019-Jan-05 14:31N 33°44' W 120°12'815.6
2019-Jan-05 14:00N 33°41' W 120°03'917.0
2019-Jan-05 13:30N 33°37' W 119°54'916.9
2019-Jan-05 13:00N 33°33' W 119°45'817.0
2019-Jan-05 12:30N 33°30' W 119°36'917.3
2019-Jan-05 12:01N 33°26' W 119°27'816.5
2019-Jan-05 11:31N 33°23' W 119°18'816.3
2019-Jan-05 11:00N 33°20' W 119°08'916.7
2019-Jan-05 10:30N 33°17' W 118°59'816.6
2019-Jan-05 10:00N 33°14' W 118°50'816.7
2019-Jan-05 09:30N 33°11' W 118°40'816.7
2019-Jan-05 09:00N 33°08' W 118°31'816.8
2019-Jan-05 08:30N 33°05' W 118°22'917.1
2019-Jan-05 08:01N 33°02' W 118°12'917.1
2019-Jan-05 07:31N 32°58' W 118°03'917.2
2019-Jan-05 07:00N 32°54' W 117°54'917.3
2019-Jan-05 06:30N 32°49' W 117°45'917.0
2019-Jan-05 06:01N 32°45' W 117°37'917.1
2019-Jan-05 05:31N 32°41' W 117°28'816.8
2019-Jan-05 05:01N 32°37' W 117°19'510.8
2019-Jan-05 04:30N 32°40' W 117°14'4 7.7
2019-Jan-05 04:00N 32°43' W 117°11'0 0.4
2019-Jan-05 03:27N 32°43' W 117°10'0 0.0
2019-Jan-05 02:53N 32°43' W 117°10'0 0.0
2019-Jan-05 02:23N 32°43' W 117°10'0 0.0
2019-Jan-05 02:00N 32°43' W 117°10'0 0.0
2019-Jan-05 01:29N 32°43' W 117°10'0 0.0
2019-Jan-05 00:59N 32°43' W 117°10'0 0.0
2019-Jan-05 00:11N 32°43' W 117°10'0 0.0
2019-Jan-04 23:59N 32°43' W 117°10'0 0.0
2019-Jan-04 23:12N 32°43' W 117°10'0 0.0
2019-Jan-04 22:59N 32°43' W 117°10'0 0.0
2019-Jan-04 22:23N 32°43' W 117°10'0 0.0
2019-Jan-04 21:53N 32°43' W 117°10'0 0.0
2019-Jan-04 21:29N 32°43' W 117°10'0 0.0
2019-Jan-04 20:59N 32°43' W 117°10'0 0.0
2019-Jan-04 20:17N 32°43' W 117°10'0 0.0
2019-Jan-04 19:59N 32°43' W 117°10'0 0.0
2019-Jan-04 19:30N 32°43' W 117°10'3 5.7
2019-Jan-04 19:00N 32°42' W 117°14'611.0
2019-Jan-04 18:30N 32°37' W 117°14'713.8
2019-Jan-04 18:00N 32°31' W 117°19'714.7
2019-Jan-04 17:30N 32°24' W 117°20'714.9
2019-Jan-04 17:00N 32°16' W 117°19'815.0
2019-Jan-04 16:30N 32°09' W 117°16'1215.3
2019-Jan-04 15:42N 31°57' W 117°12'317.1
2019-Jan-04 15:30N 31°54' W 117°11'1617.6
2019-Jan-04 14:37N 31°39' W 117°06'218.4
2019-Jan-04 14:30N 31°37' W 117°06'918.3
2019-Jan-04 14:00N 31°28' W 117°03'  
Track history (hours):
 
Tides and Currents Weather Stations Pressure Air Temp Water Temp Dewpoint Dewpoint Depression Visibility Wind Speed Wind Dir Waves Ship Positions

Christina O

Operator: V Ships Leisure SAM

Last reported at 2019-Jan-08 10:03 UTC. Time now 2019-Jan-23 17:53 UTC.
Position N 34°35' W 123°07'.
Warning: this ship's position is 15 days out of date.

Length 186 m; draft 6.1 m.

Type: Passenger vessel. MMSI: 308322000.

Date/timePositionNaut miles runAvg speedWind from/ knotsBaromVisibWave heightAir tempDewpointWater temp
2019-Jan-08 10:03N 34°35' W 123°07'618.6
2019-Jan-08 09:43N 34°41' W 123°06'418.4
2019-Jan-08 09:30N 34°45' W 123°05'12818.2
2019-Jan-08 02:27N 36°52' W 122°47'818.4
2019-Jan-08 02:00N 37°00' W 122°46'2118.3
2019-Jan-08 00:50N 37°21' W 122°44'618.4
2019-Jan-08 00:30N 37°27' W 122°44'918.2
2019-Jan-08 00:01N 37°36' W 122°43'917.3
2019-Jan-07 23:30N 37°45' W 122°40'714.2
2019-Jan-07 23:00N 37°48' W 122°32'5 9.5
2019-Jan-07 22:30N 37°49' W 122°26'3 5.9
2019-Jan-07 22:00N 37°48' W 122°30'815.4
2019-Jan-07 21:30N 37°45' W 122°39'611.7
2019-Jan-07 21:00N 37°39' W 122°40'815.4
2019-Jan-07 20:31N 37°32' W 122°40'918.8
2019-Jan-07 20:00N 37°22' W 122°40'611.1
2019-Jan-07 19:27N 37°17' W 122°44'817.1
2019-Jan-07 18:58N 37°25' W 122°44'817.0
2019-Jan-07 18:30N 37°33' W 122°43'816.8
2019-Jan-07 18:00N 37°41' W 122°42'510.8
2019-Jan-07 17:30N 37°46' W 122°39'815.3
2019-Jan-07 17:00N 37°49' W 122°30'612.6
2019-Jan-07 16:31N 37°47' W 122°22'3 5.3
2019-Jan-07 16:00N 37°45' W 122°20'0 0.1
2019-Jan-07 15:30N 37°45' W 122°20'0 0.0
2019-Jan-07 15:00N 37°45' W 122°20'0 0.0
2019-Jan-07 14:30N 37°45' W 122°20'0 0.0
2019-Jan-07 14:00N 37°45' W 122°20'0 0.0
2019-Jan-07 13:30N 37°45' W 122°20'0 0.0
2019-Jan-07 13:00N 37°45' W 122°20'0 0.0
2019-Jan-07 12:30N 37°45' W 122°20'0 0.0
2019-Jan-07 12:00N 37°45' W 122°20'0 0.0
2019-Jan-07 11:30N 37°45' W 122°20'0 0.0
2019-Jan-07 11:00N 37°45' W 122°20'0 0.1
2019-Jan-07 10:30N 37°45' W 122°20'0 0.1
2019-Jan-07 10:00N 37°45' W 122°20'0 0.1
2019-Jan-07 09:30N 37°45' W 122°20'0 0.0
2019-Jan-07 09:00N 37°45' W 122°20'0 0.1
2019-Jan-07 08:30N 37°45' W 122°20'0 0.0
2019-Jan-07 08:00N 37°45' W 122°20'0 0.0
2019-Jan-07 07:30N 37°45' W 122°20'0 0.0
2019-Jan-07 07:00N 37°45' W 122°20'0 0.0
2019-Jan-07 06:30N 37°45' W 122°20'0 0.0
2019-Jan-07 06:00N 37°45' W 122°20'0 0.0
2019-Jan-07 05:30N 37°45' W 122°20'0 0.1
2019-Jan-07 05:00N 37°45' W 122°20'0 0.1
2019-Jan-07 04:30N 37°45' W 122°20'0 0.0
2019-Jan-07 04:00N 37°45' W 122°20'0 0.2
2019-Jan-07 03:30N 37°45' W 122°20'2 3.8
2019-Jan-07 03:00N 37°46' W 122°21'3 5.9
2019-Jan-07 02:30N 37°49' W 122°24'0 0.5
2019-Jan-07 02:00N 37°48' W 122°24'0 0.0
2019-Jan-07 01:30N 37°48' W 122°24'0 0.0
2019-Jan-07 01:00N 37°48' W 122°24'0 0.0
2019-Jan-07 00:30N 37°48' W 122°24'0 0.0
2019-Jan-07 00:00N 37°48' W 122°24'0 0.0
2019-Jan-06 23:30N 37°48' W 122°24'0 0.0
2019-Jan-06 23:00N 37°48' W 122°24'0 0.0
2019-Jan-06 22:30N 37°48' W 122°24'0 0.0
2019-Jan-06 22:00N 37°48' W 122°24'0 0.0
2019-Jan-06 21:30N 37°48' W 122°24'0 0.1
2019-Jan-06 21:00N 37°48' W 122°24'0 0.0
2019-Jan-06 20:30N 37°48' W 122°24'0 0.0
2019-Jan-06 20:00N 37°48' W 122°24'0 0.1
2019-Jan-06 19:30N 37°48' W 122°24'0 0.1
2019-Jan-06 19:00N 37°48' W 122°24'0 0.0
2019-Jan-06 18:30N 37°48' W 122°24'0 0.1
2019-Jan-06 18:00N 37°48' W 122°24'0 0.0
2019-Jan-06 17:30N 37°48' W 122°24'0 0.0
2019-Jan-06 17:00N 37°48' W 122°24'0 0.0
2019-Jan-06 16:30N 37°48' W 122°24'0 0.0
2019-Jan-06 16:00N 37°48' W 122°24'0 0.0
2019-Jan-06 15:30N 37°48' W 122°24'0 0.1
2019-Jan-06 15:00N 37°48' W 122°24'1 2.3
2019-Jan-06 14:30N 37°49' W 122°25'613.0
2019-Jan-06 14:01N 37°47' W 122°33'713.6
2019-Jan-06 13:30N 37°44' W 122°41'5 9.8
2019-Jan-06 13:00N 37°39' W 122°40'5 9.8
2019-Jan-06 12:30N 37°34' W 122°40'510.0
2019-Jan-06 12:00N 37°29' W 122°40'5 9.7
2019-Jan-06 11:30N 37°24' W 122°40'510.0
2019-Jan-06 11:00N 37°19' W 122°40'510.8
2019-Jan-06 10:30N 37°14' W 122°37'611.3
2019-Jan-06 10:00N 37°09' W 122°34'12111.2
2019-Jan-05 23:15N 35°21' W 121°27'311.8
2019-Jan-05 23:00N 35°19' W 121°26'612.2
2019-Jan-05 22:30N 35°13' W 121°23'612.5
2019-Jan-05 22:00N 35°07' W 121°19'612.9
2019-Jan-05 21:30N 35°02' W 121°16'713.1
2019-Jan-05 21:01N 34°56' W 121°13'713.1
2019-Jan-05 20:30N 34°50' W 121°09'713.6
2019-Jan-05 20:00N 34°44' W 121°05'713.7
2019-Jan-05 19:31N 34°38' W 121°02'713.7
2019-Jan-05 19:00N 34°31' W 120°58'713.9
2019-Jan-05 18:30N 34°25' W 120°56'714.3
2019-Jan-05 18:00N 34°18' W 120°54'714.2
2019-Jan-05 17:31N 34°11' W 120°51'714.4
2019-Jan-05 17:00N 34°04' W 120°48'714.3
2019-Jan-05 16:31N 33°58' W 120°45'714.9
2019-Jan-05 16:00N 33°54' W 120°37'815.5
2019-Jan-05 15:31N 33°51' W 120°29'815.3
2019-Jan-05 15:00N 33°47' W 120°20'815.6
2019-Jan-05 14:31N 33°44' W 120°12'815.6
2019-Jan-05 14:00N 33°41' W 120°03'917.0
2019-Jan-05 13:30N 33°37' W 119°54'916.9
2019-Jan-05 13:00N 33°33' W 119°45'817.0
2019-Jan-05 12:30N 33°30' W 119°36'917.3
2019-Jan-05 12:01N 33°26' W 119°27'816.5
2019-Jan-05 11:31N 33°23' W 119°18'816.3
2019-Jan-05 11:00N 33°20' W 119°08'916.7
2019-Jan-05 10:30N 33°17' W 118°59'816.6
2019-Jan-05 10:00N 33°14' W 118°50'816.7
2019-Jan-05 09:30N 33°11' W 118°40'816.7
2019-Jan-05 09:00N 33°08' W 118°31'816.8
2019-Jan-05 08:30N 33°05' W 118°22'917.1
2019-Jan-05 08:01N 33°02' W 118°12'917.1
2019-Jan-05 07:31N 32°58' W 118°03'917.2
2019-Jan-05 07:00N 32°54' W 117°54'917.3
2019-Jan-05 06:30N 32°49' W 117°45'917.0
2019-Jan-05 06:01N 32°45' W 117°37'917.1
2019-Jan-05 05:31N 32°41' W 117°28'816.8
2019-Jan-05 05:01N 32°37' W 117°19'510.8
2019-Jan-05 04:30N 32°40' W 117°14'4 7.7
2019-Jan-05 04:00N 32°43' W 117°11'0 0.4
2019-Jan-05 03:27N 32°43' W 117°10'0 0.0
2019-Jan-05 02:53N 32°43' W 117°10'0 0.0
2019-Jan-05 02:23N 32°43' W 117°10'0 0.0
2019-Jan-05 02:00N 32°43' W 117°10'0 0.0
2019-Jan-05 01:29N 32°43' W 117°10'0 0.0
2019-Jan-05 00:59N 32°43' W 117°10'0 0.0
2019-Jan-05 00:11N 32°43' W 117°10'0 0.0
2019-Jan-04 23:59N 32°43' W 117°10'0 0.0
2019-Jan-04 23:12N 32°43' W 117°10'0 0.0
2019-Jan-04 22:59N 32°43' W 117°10'0 0.0
2019-Jan-04 22:23N 32°43' W 117°10'0 0.0
2019-Jan-04 21:53N 32°43' W 117°10'0 0.0
2019-Jan-04 21:29N 32°43' W 117°10'0 0.0
2019-Jan-04 20:59N 32°43' W 117°10'0 0.0
2019-Jan-04 20:17N 32°43' W 117°10'0 0.0
2019-Jan-04 19:59N 32°43' W 117°10'0 0.0
2019-Jan-04 19:30N 32°43' W 117°10'3 5.7
2019-Jan-04 19:00N 32°42' W 117°14'611.0
2019-Jan-04 18:30N 32°37' W 117°14'713.8
2019-Jan-04 18:00N 32°31' W 117°19'714.7
2019-Jan-04 17:30N 32°24' W 117°20'714.9
2019-Jan-04 17:00N 32°16' W 117°19'815.0
2019-Jan-04 16:30N 32°09' W 117°16'1215.3
2019-Jan-04 15:42N 31°57' W 117°12'317.1
2019-Jan-04 15:30N 31°54' W 117°11'1617.6
2019-Jan-04 14:37N 31°39' W 117°06'218.4
2019-Jan-04 14:30N 31°37' W 117°06'918.3
2019-Jan-04 14:00N 31°28' W 117°03'  

Dump ship's entire track history